Blue River, Kentucky
Current Conditions -  °F | °C
As of 9:55 PM on Friday 19 Dec 2014 (Local Time) from KSJS Reporting Station
Clear Clear  
Wind Chill: 19°   Ceiling: Unl
Heat Index: 27°   Visibility: 10mi
Dew Point: 23°   Wind: 7mph
Humidity: 85%   Direction: 60°ENE
Pressure: 30.24"   Gusts: NA
Location:  37.62°N, 82.84°W
Report Text: KSJS 200255Z AUTO 06006KT 10SM CLR M03/M05 A3024 RMK AO2 T10281050
Loading
Personal Weather Stations






























Interactive Weather Map New forecast layout! Learn more

10-Day Weather Forecast

Advertisements
Track Severe Weather on mobile